Time;durP1;ratioP1;P1;durP2;ratioP2;P2;SDS_P1;SDS_P2;PMS_P1;PMS_P2;Temp;Humidity;BMP_temperature;BMP_pressure;BME280_temperature;BME280_humidity;BME280_pressure;Samples;Min_cycle;Max_cycle;Signal;HPM_P1;HPM_P2
2023/03/20 00:00:07;;;;;;;;;70.33;52.00;;;;;8.14;71.60;99621.38;6306312;20;3642989;-45
2023/03/20 00:02:37;;;;;;;;;71.33;54.33;;;;;8.17;72.40;99619.50;6309797;20;3639951;-49
2023/03/20 00:05:27;;;;;;;;;66.00;53.00;;;;;8.20;70.75;99622.00;6311392;20;3615890;-48
2023/03/20 00:07:57;;;;;;;;;67.00;52.00;;;;;8.08;70.27;99608.34;6309184;20;2879554;-46
2023/03/20 00:10:37;;;;;;;;;75.33;55.33;;;;;7.89;72.39;99618.25;6309608;20;3638822;-46
2023/03/20 00:13:30;;;;;;;;;65.67;52.00;;;;;8.05;70.34;99618.31;6308637;20;2868228;-46
2023/03/20 00:16:00;;;;;;;;;64.00;52.67;;;;;8.09;70.83;99620.75;6311096;20;2869042;-49
2023/03/20 00:18:29;;;;;;;;;63.33;50.33;;;;;7.92;71.96;99612.72;6309051;20;3614911;-48
2023/03/20 00:20:59;;;;;;;;;64.67;49.67;;;;;7.77;70.98;99610.88;6307871;20;3626778;-45
2023/03/20 00:23:29;;;;;;;;;67.67;51.00;;;;;8.00;70.38;99609.66;6309379;20;3632553;-46
2023/03/20 00:25:58;;;;;;;;;60.67;49.00;;;;;7.80;71.44;99608.03;6309988;20;2868056;-45
2023/03/20 00:28:47;;;;;;;;;63.67;51.33;;;;;7.76;70.91;99611.81;6311695;20;2867059;-45
2023/03/20 00:31:28;;;;;;;;;59.67;48.00;;;;;7.84;70.76;99612.28;6308737;20;2875371;-47
2023/03/20 00:34:12;;;;;;;;;60.33;48.67;;;;;7.69;71.32;99609.47;6308586;20;2875294;-45
2023/03/20 00:36:41;;;;;;;;;68.00;50.00;;;;;7.64;71.53;99606.16;6316043;20;2883773;-48
2023/03/20 00:39:11;;;;;;;;;61.00;47.00;;;;;7.60;74.01;99601.88;6316195;20;3630504;-46
2023/03/20 00:42:05;;;;;;;;;60.67;50.33;;;;;7.61;71.55;99603.63;6314210;20;3614869;-47
2023/03/20 00:44:43;;;;;;;;;61.33;50.00;;;;;7.74;71.68;99592.31;6313732;20;2877428;-47
2023/03/20 00:47:20;;;;;;;;;64.33;50.00;;;;;7.80;71.36;99602.69;6312565;20;3630599;-47
2023/03/20 00:49:53;;;;;;;;;58.00;48.50;;;;;7.74;71.33;99597.66;6312994;20;2860660;-50
2023/03/20 00:52:23;;;;;;;;;61.00;48.00;;;;;7.56;71.77;99592.31;6282746;20;2868017;-50
2023/03/20 00:54:53;;;;;;;;;58.00;45.67;;;;;7.58;72.47;99592.22;6315437;20;2867053;-49
2023/03/20 00:57:32;;;;;;;;;57.33;45.00;;;;;7.70;71.83;99591.59;6313422;20;2872266;-49
2023/03/20 01:00:30;;;;;;;;;58.33;47.67;;;;;7.58;71.34;99593.13;6310599;20;2868112;-49
2023/03/20 01:03:01;;;;;;;;;57.67;45.67;;;;;7.51;72.83;99591.69;6312199;20;2866951;-47
2023/03/20 01:05:30;;;;;;;;;57.50;46.50;;;;;7.46;73.39;99585.72;6315111;20;2858617;-45
2023/03/20 01:07:59;;;;;;;;;58.00;46.00;;;;;7.65;71.67;99589.16;6278802;20;2875282;-45
2023/03/20 01:10:31;;;;;;;;;61.00;46.33;;;;;7.66;71.71;99582.91;6282317;20;2869765;-45
2023/03/20 01:13:01;;;;;;;;;55.00;44.50;;;;;7.57;72.04;99583.34;6313202;20;2855489;-46
2023/03/20 01:15:33;;;;;;;;;62.67;47.67;;;;;7.57;72.14;99591.38;6282860;20;2879579;-47
2023/03/20 01:18:03;;;;;;;;;53.33;42.67;;;;;7.59;71.84;99589.50;6313942;20;2881603;-45
2023/03/20 01:20:32;;;;;;;;;58.50;46.50;;;;;7.54;71.23;99586.19;6311863;20;2851549;-47
2023/03/20 01:23:01;;;;;;;;;60.67;45.67;;;;;7.57;71.15;99580.69;6282228;20;2871183;-47
2023/03/20 01:25:31;;;;;;;;;60.00;44.67;;;;;7.57;70.84;99580.69;6314798;20;2875350;-44
2023/03/20 01:28:00;;;;;;;;;53.50;44.00;;;;;7.67;70.30;99584.63;6312481;20;2865922;-47
2023/03/20 01:30:32;;;;;;;;;57.00;46.00;;;;;7.75;69.99;99591.38;6281489;20;2858581;-48
2023/03/20 01:33:22;;;;;;;;;60.00;45.00;;;;;7.66;69.83;99582.91;6281100;20;2865975;-45
2023/03/20 01:35:52;;;;;;;;;59.33;45.67;;;;;7.68;70.97;99582.81;6313145;20;2865978;-45
2023/03/20 01:38:25;;;;;;;;;57.67;45.00;;;;;7.51;71.86;99570.31;6312263;20;2873366;-49
2023/03/20 01:41:06;;;;;;;;;60.00;45.00;;;;;7.72;71.19;99578.19;6309511;20;2870219;-44
2023/03/20 01:43:36;;;;;;;;;49.00;38.00;;;;;7.67;71.46;99578.41;6308320;20;3640984;-45
2023/03/20 01:46:11;;;;;;;;;58.50;47.00;;;;;7.78;70.07;99583.19;6312608;20;2852409;-45
2023/03/20 01:48:49;;;;;;;;;59.00;44.00;;;;;7.75;69.75;99578.03;6282300;20;2872176;-45
2023/03/20 01:51:25;;;;;;;;;53.00;45.50;;;;;7.65;69.87;99578.47;6311318;20;2850384;-46
2023/03/20 01:54:03;;;;;;;;;54.33;40.67;;;;;7.74;70.80;99586.97;6281521;20;2868183;-45
2023/03/20 01:56:45;;;;;;;;;55.67;44.33;;;;;7.77;71.33;99581.47;6313964;20;2870178;-44
2023/03/20 01:59:28;;;;;;;;;51.00;38.50;;;;;7.50;71.63;99589.94;6310842;20;2863921;-45
2023/03/20 02:01:56;;;;;;;;;51.50;41.50;;;;;7.65;71.10;99583.81;6280211;20;2858611;-47
2023/03/20 02:04:36;;;;;;;;;52.00;44.00;;;;;7.68;70.89;99583.66;6279567;20;2854619;-44
2023/03/20 02:07:10;;;;;;;;;53.00;42.50;;;;;7.55;71.57;99577.22;6280147;20;2858593;-49
2023/03/20 02:09:39;;;;;;;;;56.00;41.67;;;;;7.60;73.86;99577.84;6280929;20;2866904;-50
2023/03/20 02:12:10;;;;;;;;;54.00;40.50;;;;;7.65;71.10;99572.28;6312870;20;2861715;-45
2023/03/20 02:14:40;;;;;;;;;48.00;38.00;;;;;7.67;71.08;99571.25;6280223;20;3616975;-47
2023/03/20 02:17:10;;;;;;;;;54.33;43.67;;;;;7.56;71.38;99568.28;6311114;20;2867105;-47
2023/03/20 02:20:05;;;;;;;;;54.33;42.33;;;;;7.73;70.98;99569.22;6310258;20;3621109;-48
2023/03/20 02:23:01;;;;;;;;;55.00;44.00;;;;;7.73;71.82;99564.72;6313831;20;2856530;-47
2023/03/20 02:26:01;;;;;;;;;55.00;43.00;;;;;7.56;72.80;99551.38;6312926;20;2871161;-46
2023/03/20 02:28:59;;;;;;;;;52.00;41.00;;;;;7.24;73.32;99551.19;6313756;20;2849233;-44
2023/03/20 02:32:29;;;;;;;;;55.33;44.00;;;;;7.34;74.61;99552.44;6279107;20;2873352;-46
2023/03/20 02:36:04;;;;;;;;;57.00;43.50;;;;;7.34;74.58;99554.25;6310947;20;2879679;-46
2023/03/20 02:39:19;;;;;;;;;57.50;46.00;;;;;7.54;72.80;99546.09;6280577;20;2859769;-46
2023/03/20 02:42:13;;;;;;;;;59.00;45.00;;;;;7.36;72.98;99552.38;6279690;20;2864908;-47
2023/03/20 02:45:12;;;;;;;;;56.00;45.00;;;;;7.38;71.75;99548.69;6275456;20;2857584;-46
2023/03/20 02:48:09;;;;;;;;;49.50;43.00;;;;;7.31;72.07;99546.41;6280180;20;2853404;-44
2023/03/20 02:51:11;;;;;;;;;49.00;41.00;;;;;7.37;72.30;99557.66;6275475;20;2867085;-47
2023/03/20 02:54:33;;;;;;;;;55.67;42.00;;;;;7.38;71.94;99553.19;6278802;20;2862861;-45
2023/03/20 02:57:36;;;;;;;;;62.33;49.00;;;;;7.35;71.94;99540.84;6308935;20;3623218;-44
2023/03/20 03:00:32;;;;;;;;;61.33;47.67;;;;;7.45;71.58;99544.78;6309017;20;2877451;-45
2023/03/20 03:03:11;;;;;;;;;51.33;39.67;;;;;7.34;72.18;99540.91;6309139;20;2859035;-47
2023/03/20 03:05:58;;;;;;;;;55.00;40.00;;;;;7.39;71.87;99547.75;6310060;20;2873284;-49
2023/03/20 03:08:37;;;;;;;;;51.50;41.50;;;;;7.36;72.51;99544.38;6311514;20;2860728;-46
2023/03/20 03:11:08;;;;;;;;;47.00;39.00;;;;;7.36;72.67;99544.38;6274441;20;2856517;-43
2023/03/20 03:13:50;;;;;;;;;44.00;38.00;;;;;7.41;72.87;99537.00;6277316;20;2861189;-46
2023/03/20 03:16:30;;;;;;;;;46.50;39.50;;;;;7.33;73.98;99539.19;6277484;20;2851407;-46
2023/03/20 03:19:12;;;;;;;;;54.00;40.00;;;;;7.42;72.97;99544.06;6278917;20;2862760;-45
2023/03/20 03:21:42;;;;;;;;;52.67;40.00;;;;;7.35;75.91;99548.00;6274298;20;2879613;-44
2023/03/20 03:24:34;;;;;;;;;50.50;38.00;;;;;7.34;74.74;99548.94;6309672;20;2871123;-47
2023/03/20 03:27:40;;;;;;;;;43.00;37.33;;;;;7.39;74.66;99545.06;6276785;20;2863846;-47
2023/03/20 03:30:23;;;;;;;;;51.50;41.50;;;;;7.39;75.73;99547.75;6307075;20;2849265;-50
2023/03/20 03:33:15;;;;;;;;;60.00;43.33;;;;;7.39;75.18;99560.25;6278079;20;2876476;-48
2023/03/20 03:35:47;;;;;;;;;63.00;47.00;;;;;7.47;74.46;99558.91;6311170;20;3609741;-44
2023/03/20 03:38:30;;;;;;;;;55.67;42.33;;;;;7.48;74.31;99555.31;6309276;20;3610709;-48
2023/03/20 03:41:36;;;;;;;;;60.67;45.33;;;;;7.50;74.16;99565.91;6308845;20;2872110;-47
2023/03/20 03:44:52;;;;;;;;;60.33;47.00;;;;;7.59;73.81;99551.22;6308706;20;2864915;-50
2023/03/20 03:47:35;;;;;;;;;66.67;50.67;;;;;7.60;73.80;99548.47;6312897;20;3628371;-49
2023/03/20 03:50:25;;;;;;;;;63.00;49.00;;;;;7.64;73.52;99543.84;6307800;20;3629634;-56
2023/03/20 03:53:03;;;;;;;;;56.50;46.50;;;;;7.61;73.41;99542.19;6309322;20;2858675;-50
2023/03/20 03:55:44;;;;;;;;;55.00;43.67;;;;;7.56;74.08;99536.22;6278119;20;2871188;-55
2023/03/20 03:58:25;;;;;;;;;51.00;42.00;;;;;7.29;74.98;99541.13;6307746;20;2849372;-52
2023/03/20 04:00:59;;;;;;;;;44.50;38.00;;;;;7.23;75.33;99536.13;6277556;20;2870150;-50
2023/03/20 04:03:37;;;;;;;;;52.00;43.33;;;;;7.12;76.10;99546.47;6277939;20;2861749;-51
2023/03/20 04:06:11;;;;;;;;;56.00;41.67;;;;;7.38;74.79;99537.16;6309584;20;2872181;-52
2023/03/20 04:08:42;;;;;;;;;60.00;47.67;;;;;7.19;75.18;99542.56;6309104;20;2867998;-52
2023/03/20 04:11:27;;;;;;;;;72.00;54.00;;;;;7.20;75.56;99538.94;6315749;20;3622650;-54
2023/03/20 04:13:57;;;;;;;;;73.00;54.00;;;;;7.17;75.77;99537.28;6313989;20;3643080;-54
2023/03/20 04:16:27;;;;;;;;;71.00;53.33;;;;;7.19;75.07;99548.75;6317269;20;3633612;-53
2023/03/20 04:18:56;;;;;;;;;55.00;46.00;;;;;7.11;75.83;99550.97;6315185;20;2857576;-50
2023/03/20 04:21:25;;;;;;;;;50.50;41.00;;;;;7.12;75.51;99542.00;6282907;20;2874304;-46
2023/03/20 04:23:54;;;;;;;;;58.00;45.67;;;;;6.92;78.08;99550.13;6284151;20;2885719;-44
2023/03/20 04:26:24;;;;;;;;;52.67;40.33;;;;;6.85;77.06;99560.25;6317505;20;2879585;-47
2023/03/20 04:28:53;;;;;;;;;55.50;42.00;;;;;6.74;78.30;99554.53;6313296;20;2859681;-45
2023/03/20 04:31:22;;;;;;;;;51.33;40.00;;;;;6.82;78.90;99561.25;6282932;20;2875334;-48
2023/03/20 04:33:52;;;;;;;;;52.00;38.00;;;;;6.81;77.78;99558.66;6314193;20;3623183;-51
2023/03/20 04:36:21;;;;;;;;;52.50;41.50;;;;;6.58;79.32;99563.28;6314758;20;2861921;-48
2023/03/20 04:38:50;;;;;;;;;51.00;43.00;;;;;6.44;79.40;99559.53;6286067;20;2811776;-52
2023/03/20 04:41:20;;;;;;;;;64.67;46.67;;;;;6.58;78.39;99562.41;6280773;20;3639846;-51
2023/03/20 04:43:49;;;;;;;;;62.00;47.67;;;;;6.54;78.21;99566.16;6315761;20;3615887;-52
2023/03/20 04:46:18;;;;;;;;;54.00;45.50;;;;;6.56;77.91;99562.50;6313737;20;2851592;-53
2023/03/20 04:48:47;;;;;;;;;53.00;44.50;;;;;6.55;77.84;99563.41;6283943;20;2862804;-54
2023/03/20 04:51:16;;;;;;;;;57.00;44.00;;;;;6.63;77.27;99564.84;6278416;20;2864860;-51
2023/03/20 04:53:44;;;;;;;;;53.50;42.00;;;;;6.52;76.74;99562.69;6283355;20;2847212;-55
2023/03/20 04:56:14;;;;;;;;;56.00;44.00;;;;;6.38;78.72;99564.22;6283319;20;2882110;-52
2023/03/20 04:58:42;;;;;;;;;49.00;38.50;;;;;6.47;77.63;99572.72;6315447;20;2842968;-51
2023/03/20 05:01:12;;;;;;;;;52.00;39.33;;;;;6.37;78.78;99574.94;6281229;20;2877588;-50
2023/03/20 05:03:41;;;;;;;;;48.50;38.50;;;;;6.14;80.48;99584.00;6313588;20;2848221;-49
2023/03/20 05:06:10;;;;;;;;;49.50;37.50;;;;;6.24;81.19;99574.66;6284091;20;2863846;-56
2023/03/20 05:08:38;;;;;;;;;52.50;41.00;;;;;6.10;80.60;99575.25;6281055;20;2857651;-53
2023/03/20 05:11:07;;;;;;;;;53.00;44.00;;;;;6.28;79.84;99584.22;6283384;20;2856511;-51
2023/03/20 05:13:36;;;;;;;;;39.00;35.00;;;;;6.07;80.12;99578.06;6283531;20;2851389;-50
2023/03/20 05:16:05;;;;;;;;;40.00;33.00;;;;;6.29;79.13;99583.31;6280934;20;2857594;-52
2023/03/20 05:18:35;;;;;;;;;46.00;40.00;;;;;6.34;79.50;99581.28;6283576;20;2870274;-50
2023/03/20 05:21:06;;;;;;;;;46.50;36.00;;;;;6.31;79.50;99578.75;6312052;20;3504522;-52
2023/03/20 05:23:35;;;;;;;;;45.50;39.00;;;;;6.43;78.65;99582.66;6308638;20;2853467;-54
2023/03/20 05:26:06;;;;;;;;;58.33;46.33;;;;;6.57;78.09;99577.53;6281575;20;2879895;-49
2023/03/20 05:28:36;;;;;;;;;57.33;45.00;;;;;6.61;76.87;99586.28;6295177;20;2866418;-54
2023/03/20 05:31:05;;;;;;;;;54.00;44.50;;;;;6.57;76.91;99590.88;6304548;20;2846904;-54
2023/03/20 05:33:35;;;;;;;;;46.67;38.33;;;;;6.88;75.56;99597.44;6275635;20;2872273;-53
2023/03/20 05:36:07;;;;;;;;;49.33;37.67;;;;;6.76;75.06;99600.69;6304944;20;2872281;-53
2023/03/20 05:38:36;;;;;;;;;39.00;35.00;;;;;6.91;74.87;99599.09;6305085;20;2846132;-52
2023/03/20 05:41:05;;;;;;;;;40.00;36.00;;;;;7.01;73.87;99600.41;6275475;20;2858729;-55
2023/03/20 05:43:35;;;;;;;;;43.00;35.00;;;;;6.56;75.20;99598.97;6274332;20;2872597;-49
2023/03/20 05:46:04;;;;;;;;;40.00;36.50;;;;;6.71;75.40;99592.03;6312707;20;2860744;-52
2023/03/20 05:48:34;;;;;;;;;37.33;34.00;;;;;7.03;74.75;99593.19;6283753;20;2861766;-50
2023/03/20 05:51:03;;;;;;;;;41.50;36.50;;;;;7.10;74.46;99591.94;6312673;20;2850396;-55
2023/03/20 05:53:32;;;;;;;;;42.50;35.00;;;;;7.02;74.44;99597.63;6278664;20;2860693;-51
2023/03/20 05:56:01;;;;;;;;;44.00;36.50;;;;;7.35;73.00;99596.06;6280732;20;2857589;-48
2023/03/20 05:58:30;;;;;;;;;43.00;35.00;;;;;7.46;71.81;99605.28;6283258;20;3609678;-52
2023/03/20 06:00:59;;;;;;;;;47.33;37.00;;;;;7.75;70.24;99602.06;6312329;20;3609610;-54
2023/03/20 06:03:28;;;;;;;;;45.00;36.00;;;;;7.99;68.96;99603.47;6279043;20;2859646;-54
2023/03/20 06:05:57;;;;;;;;;42.33;35.33;;;;;7.84;68.68;99604.25;6278280;20;2865035;-55
2023/03/20 06:08:26;;;;;;;;;36.00;32.00;;;;;7.96;67.54;99606.31;6316617;20;3600297;-56
2023/03/20 06:10:55;;;;;;;;;40.50;35.50;;;;;8.24;66.29;99607.50;6278169;20;2848399;-56
2023/03/20 06:13:24;;;;;;;;;42.33;35.67;;;;;8.45;66.10;99601.06;6282927;20;2859756;-53
2023/03/20 06:15:53;;;;;;;;;37.50;34.00;;;;;8.48;65.10;99608.06;6308164;20;2855481;-55
2023/03/20 06:18:22;;;;;;;;;42.00;36.50;;;;;9.01;62.85;99607.75;6280543;20;2864893;-51
2023/03/20 06:20:54;;;;;;;;;64.00;51.00;;;;;9.17;62.03;99610.44;6280157;20;3611722;-51
2023/03/20 06:23:24;;;;;;;;;54.00;41.33;;;;;9.95;59.75;99612.16;6313018;20;2860737;-53
2023/03/20 06:25:54;;;;;;;;;51.67;43.67;;;;;10.81;55.91;99612.22;6312546;20;2860814;-45
2023/03/20 06:28:23;;;;;;;;;46.67;36.00;;;;;10.52;55.66;99612.25;6313800;20;2864845;-46
2023/03/20 06:30:52;;;;;;;;;41.33;36.00;;;;;11.18;53.81;99625.00;6314151;20;3604445;-46
2023/03/20 06:33:21;;;;;;;;;37.50;33.00;;;;;12.35;49.93;99630.66;6279880;20;2853424;-46
2023/03/20 06:35:51;;;;;;;;;37.33;33.67;;;;;12.60;49.10;99629.78;6279370;20;2857679;-45
2023/03/20 06:38:21;;;;;;;;;35.33;31.00;;;;;12.67;48.85;99632.91;6310675;20;2848297;-47
2023/03/20 06:40:49;;;;;;;;;33.67;31.00;;;;;13.17;47.89;99633.78;6313676;20;3593093;-48
2023/03/20 06:43:19;;;;;;;;;30.67;29.67;;;;;13.51;47.49;99642.13;6278612;20;2853507;-46
2023/03/20 06:45:48;;;;;;;;;33.00;31.33;;;;;14.03;46.44;99638.16;6313609;20;3593999;-46
2023/03/20 06:48:20;;;;;;;;;36.33;32.33;;;;;12.70;49.44;99638.06;6278615;20;3600376;-49
2023/03/20 06:50:51;;;;;;;;;40.67;32.00;;;;;13.06;48.42;99644.47;6309386;20;3624211;-48
2023/03/20 06:53:20;;;;;;;;;35.00;31.00;;;;;14.36;45.71;99644.63;6282843;20;3589834;-46
2023/03/20 06:55:50;;;;;;;;;36.00;30.00;;;;;15.11;43.51;99636.84;6279834;20;3595031;-46
2023/03/20 06:58:19;;;;;;;;;29.33;27.33;;;;;14.21;43.97;99642.13;6314418;20;3599250;-44
2023/03/20 07:00:46;;;;;;;;;22.00;21.00;;;;;13.52;44.08;99639.28;6278972;20;2483584;-47
2023/03/20 07:03:15;;;;;;;;;39.00;33.67;;;;;13.68;44.82;99647.09;6282637;20;3600286;-45
2023/03/20 07:05:44;;;;;;;;;33.67;31.33;;;;;13.95;45.17;99641.44;6282837;20;3585676;-45
2023/03/20 07:08:14;;;;;;;;;36.00;31.50;;;;;15.27;41.73;99646.41;6282201;20;3545039;-44
2023/03/20 07:10:42;;;;;;;;;37.00;30.50;;;;;14.99;42.19;99654.06;6277355;20;2864879;-45
2023/03/20 07:13:13;;;;;;;;;34.00;31.67;;;;;15.89;40.64;99653.88;6282233;20;3594006;-45
2023/03/20 07:15:42;;;;;;;;;30.00;29.00;;;;;15.12;41.09;99649.38;6283192;20;3578412;-45
2023/03/20 07:18:30;;;;;;;;;32.67;30.00;;;;;16.36;39.19;99650.84;6281410;20;3598282;-46
2023/03/20 07:21:04;;;;;;;;;31.67;30.33;;;;;16.01;38.60;99643.88;6280650;20;3589904;-45
2023/03/20 07:23:34;;;;;;;;;30.00;26.00;;;;;14.14;42.58;99650.81;6281468;20;3595167;-47
2023/03/20 07:26:05;;;;;;;;;29.00;28.00;;;;;12.64;46.00;99636.69;6310450;20;3492985;-46
2023/03/20 07:28:35;;;;;;;;;33.67;31.33;;;;;12.27;47.68;99630.31;6312613;20;2852477;-47
2023/03/20 07:31:05;;;;;;;;;39.67;34.33;;;;;12.25;48.30;99641.19;6312586;20;2861892;-48
2023/03/20 07:33:34;;;;;;;;;32.67;30.33;;;;;12.92;47.62;99640.94;6316782;20;3583612;-47
2023/03/20 07:36:03;;;;;;;;;37.50;33.50;;;;;13.16;46.61;99642.81;6283042;20;2853411;-48
2023/03/20 07:38:32;;;;;;;;;42.33;34.67;;;;;13.20;46.51;99648.88;6282298;20;3601312;-44
2023/03/20 07:41:01;;;;;;;;;40.00;32.50;;;;;13.19;45.89;99653.38;6313748;20;2855526;-45
2023/03/20 07:43:31;;;;;;;;;41.67;34.00;;;;;13.27;45.87;99652.84;6282809;20;3622213;-47
2023/03/20 07:46:05;;;;;;;;;42.67;34.33;;;;;13.24;46.38;99647.66;6321403;20;3609652;-44
2023/03/20 07:48:35;;;;;;;;;36.00;32.33;;;;;13.43;45.69;99650.78;6288319;20;3597126;-47
2023/03/20 07:51:05;;;;;;;;;33.00;31.00;;;;;13.60;44.24;99655.75;6288347;20;3600656;-46
2023/03/20 07:53:34;;;;;;;;;34.00;30.00;;;;;13.23;45.14;99645.94;6287326;20;2830505;-47
2023/03/20 07:56:03;;;;;;;;;36.33;33.33;;;;;13.91;44.47;99649.91;6288965;20;3608062;-45
2023/03/20 07:58:32;;;;;;;;;19.67;16.33;;;;;13.66;44.78;99651.72;6290396;20;2829448;-49
2023/03/20 08:01:01;;;;;;;;;34.00;30.67;;;;;13.57;44.89;99647.03;6321345;20;3596093;-48
2023/03/20 08:03:30;;;;;;;;;34.33;30.33;;;;;13.77;44.97;99648.22;6287430;20;3581596;-48
2023/03/20 08:06:00;;;;;;;;;29.33;25.00;;;;;13.79;44.12;99646.28;6284462;20;3606529;-49
2023/03/20 08:08:29;;;;;;;;;35.00;30.00;;;;;14.18;44.03;99653.16;6320347;20;3600327;-49
2023/03/20 08:10:58;;;;;;;;;33.67;29.33;;;;;14.57;43.15;99647.53;6289896;20;3585701;-48
2023/03/20 08:13:26;;;;;;;;;32.67;28.33;;;;;14.41;43.38;99664.06;6289112;20;3590907;-50
2023/03/20 08:15:56;;;;;;;;;29.33;28.33;;;;;14.33;43.57;99661.09;6284431;20;3602387;-48
2023/03/20 08:18:25;;;;;;;;;31.00;27.67;;;;;13.86;44.52;99661.03;6319082;20;3576505;-48
2023/03/20 08:20:54;;;;;;;;;31.00;30.00;;;;;13.73;44.67;99654.84;6286644;20;3585673;-47
2023/03/20 08:23:23;;;;;;;;;32.33;27.67;;;;;14.01;44.03;99661.72;6283666;20;3608581;-45
2023/03/20 08:25:53;;;;;;;;;28.67;26.67;;;;;14.47;43.95;99663.56;6287562;20;3589875;-46
2023/03/20 08:28:24;;;;;;;;;25.50;25.00;;;;;14.52;43.48;99665.91;6288902;20;2852380;-45
2023/03/20 08:31:13;;;;;;;;;24.33;22.67;;;;;14.70;42.79;99656.38;6289154;20;3585667;-46
2023/03/20 08:33:45;;;;;;;;;27.00;26.33;;;;;14.98;42.24;99662.28;6284481;20;3596092;-46
2023/03/20 08:36:15;;;;;;;;;30.00;24.67;;;;;15.62;41.49;99665.16;6321938;20;3596122;-48
2023/03/20 08:38:44;;;;;;;;;16.33;14.00;;;;;15.86;41.51;99675.81;6287296;20;3542124;-49
2023/03/20 08:41:14;;;;;;;;;30.00;25.00;;;;;15.64;41.63;99679.44;6318209;20;3602467;-56
2023/03/20 08:43:42;;;;;;;;;25.50;22.50;;;;;15.59;41.86;99674.38;6283057;20;2844124;-57
2023/03/20 08:46:12;;;;;;;;;34.75;23.50;;;;;15.57;41.07;99670.94;6288955;20;3633672;-56
2023/03/20 08:48:41;;;;;;;;;23.00;20.50;;;;;15.34;42.01;99675.53;6315170;20;2837798;-52
2023/03/20 08:51:10;;;;;;;;;20.50;18.00;;;;;16.01;40.65;99685.38;6285384;20;2840931;-59
2023/03/20 08:53:39;;;;;;;;;24.67;22.67;;;;;16.31;40.17;99678.31;6285170;20;2848231;-59
2023/03/20 08:56:09;;;;;;;;;22.00;21.00;;;;;15.51;40.45;99678.72;6319949;20;3569053;-54
2023/03/20 08:58:37;;;;;;;;;21.00;20.00;;;;;15.97;40.86;99681.19;6284724;20;2844086;-55
2023/03/20 09:01:08;;;;;;;;;22.00;21.50;;;;;16.13;40.95;99685.31;6286100;20;2839999;-53
2023/03/20 09:03:37;;;;;;;;;17.50;14.50;;;;;16.10;39.53;99675.59;6285110;20;2809708;-56
2023/03/20 09:06:09;;;;;;;;;19.50;18.00;;;;;15.86;39.94;99686.66;6283873;20;2500467;-59
2023/03/20 09:08:37;;;;;;;;;15.00;13.00;;;;;15.41;41.21;99680.47;6287537;20;2803998;-59
2023/03/20 09:11:06;;;;;;;;;14.00;14.00;;;;;15.84;39.95;99683.19;6286735;20;2800309;-59
2023/03/20 09:13:35;;;;;;;;;20.00;17.00;;;;;16.47;39.35;99672.44;6285543;20;2828619;-59
2023/03/20 09:16:05;;;;;;;;;23.50;19.50;;;;;17.03;39.06;99682.06;6283195;20;2849298;-59
2023/03/20 09:18:33;;;;;;;;;18.67;17.33;;;;;16.34;39.21;99671.78;6286363;20;3547214;-59
2023/03/20 09:21:02;;;;;;;;;25.00;19.00;;;;;16.97;38.98;99679.91;6315972;20;2850288;-57
2023/03/20 09:23:31;;;;;;;;;13.00;12.00;;;;;16.47;39.57;99672.44;6281890;20;2792051;-58
2023/03/20 09:25:59;;;;;;;;;22.50;15.00;;;;;16.43;40.49;99677.28;6311669;20;2483600;-57
2023/03/20 09:28:27;;;;;;;;;21.00;18.50;;;;;16.81;39.12;99674.97;6283067;20;2492110;-58
2023/03/20 09:30:58;;;;;;;;;23.00;18.33;;;;;17.22;39.65;99679.44;6287709;20;3576333;-59
2023/03/20 09:33:26;;;;;;;;;12.50;11.00;;;;;17.18;39.06;99682.56;6288431;20;2795121;-58
2023/03/20 09:35:55;;;;;;;;;14.50;14.50;;;;;16.97;39.26;99674.47;6285004;20;2810802;-59
2023/03/20 09:38:24;;;;;;;;;17.00;15.50;;;;;17.00;39.35;99680.47;6286660;20;2815890;-59
2023/03/20 09:41:00;;;;;;;;;15.00;15.00;;;;;16.91;38.59;99683.16;6285951;20;2810703;-58
2023/03/20 09:43:56;;;;;;;;;17.50;15.50;;;;;17.09;38.53;99686.97;6280855;20;2819061;-60
2023/03/20 09:46:57;;;;;;;;;14.67;14.33;;;;;16.96;37.80;99681.75;6284782;20;3528389;-60
2023/03/20 09:50:31;;;;;;;;;10.00;10.00;;;;;17.00;38.19;99677.75;6281029;20;2778405;-60
2023/03/20 09:53:30;;;;;;;;;18.67;17.00;;;;;17.33;37.70;99679.31;6280596;20;2830884;-60
2023/03/20 09:56:00;;;;;;;;;17.67;13.67;;;;;17.52;37.34;99674.97;6319577;20;3514894;-60
2023/03/20 09:58:37;;;;;;;;;16.33;14.00;;;;;17.36;38.17;99671.91;6316192;20;3522174;-59
2023/03/20 10:01:09;;;;;;;;;12.00;11.00;;;;;17.83;36.53;99674.91;6316309;20;2796132;-60
2023/03/20 10:03:56;;;;;;;;;13.00;10.00;;;;;17.66;37.00;99677.25;6283360;20;3519084;-60
2023/03/20 10:06:24;;;;;;;;;14.00;11.33;;;;;17.77;36.43;99673.56;6312723;20;3515976;-60
2023/03/20 10:08:54;;;;;;;;;18.00;13.00;;;;;17.55;36.44;99667.38;6327237;20;2610758;-60
2023/03/20 10:12:19;;;;;;;;;12.33;12.33;;;;;17.19;36.90;99667.97;6281116;20;3507666;-60
2023/03/20 10:15:14;;;;;;;;;12.50;12.50;;;;;17.29;37.84;99672.44;6313514;20;2810752;-60
2023/03/20 10:18:23;;;;;;;;;17.50;15.00;;;;;18.14;36.50;99679.22;6282744;20;2819471;-60
2023/03/20 10:21:17;;;;;;;;;20.00;16.00;;;;;18.21;36.08;99674.91;6281183;20;2496145;-60
2023/03/20 10:24:05;;;;;;;;;16.00;16.00;;;;;18.64;35.34;99676.28;6284340;20;2822175;-60
2023/03/20 10:26:37;;;;;;;;;27.67;24.67;;;;;18.85;34.72;99667.09;6285179;20;3596188;-59
2023/03/20 10:29:42;;;;;;;;;15.67;15.67;;;;;18.70;35.47;99669.41;6281910;20;3542978;-59
2023/03/20 10:33:09;;;;;;;;;23.00;19.00;;;;;18.29;35.65;99667.91;6284537;20;2848309;-60
2023/03/20 10:36:14;;;;;;;;;17.00;14.33;;;;;18.45;35.39;99670.88;6280525;20;3533629;-60
2023/03/20 10:39:11;;;;;;;;;17.00;15.00;;;;;18.47;35.60;99668.88;6280966;20;2819066;-60
2023/03/20 10:41:52;;;;;;;;;15.33;14.67;;;;;18.70;35.41;99669.41;6281430;20;3550628;-60
2023/03/20 10:45:10;;;;;;;;;22.67;21.67;;;;;19.46;34.87;99665.69;6285120;20;3573179;-59
2023/03/20 10:47:43;;;;;;;;;16.67;15.00;;;;;18.34;35.72;99662.88;6281779;20;3547165;-59
2023/03/20 10:50:23;;;;;;;;;16.33;16.00;;;;;18.62;35.62;99656.53;6314088;20;3569158;-60
2023/03/20 10:52:55;;;;;;;;;16.50;16.50;;;;;18.84;35.64;99644.47;6280106;20;2827373;-60
2023/03/20 10:55:40;;;;;;;;;19.00;17.50;;;;;18.39;35.87;99657.88;6282052;20;2855524;-60
2023/03/20 10:58:25;;;;;;;;;50.67;40.67;;;;;18.73;34.72;99649.22;6285242;20;3589976;-61
2023/03/20 11:00:57;;;;;;;;;20.00;18.00;;;;;18.21;35.59;99645.00;6277345;20;2844078;-60
2023/03/20 11:03:30;;;;;;;;;79.00;63.67;;;;;18.73;35.33;99644.63;6282106;20;3658676;-61
2023/03/20 11:06:27;;;;;;;;;13.33;12.67;;;;;18.68;35.08;99651.53;6316300;20;2792105;-61
2023/03/20 11:08:57;;;;;;;;;19.50;17.00;;;;;18.77;36.34;99643.38;6309388;20;2829482;-59
2023/03/20 11:11:29;;;;;;;;;14.00;14.00;;;;;18.27;36.49;99640.00;6278635;20;3542968;-58
2023/03/20 11:14:21;;;;;;;;;21.00;16.67;;;;;18.56;35.03;99638.09;6281970;20;3577922;-54
2023/03/20 11:16:55;;;;;;;;;48.67;39.00;;;;;19.18;34.58;99640.34;6280260;20;2853499;-56
2023/03/20 11:19:24;;;;;;;;;19.33;17.33;;;;;18.36;35.41;99640.00;6314971;20;3564837;-53
2023/03/20 11:21:59;;;;;;;;;45.33;38.00;;;;;19.20;34.74;99635.59;6279709;20;3592010;-56
2023/03/20 11:24:47;;;;;;;;;18.00;17.67;;;;;19.39;34.30;99631.91;6314423;20;3572182;-57
2023/03/20 11:27:24;;;;;;;;;19.00;17.00;;;;;19.46;34.17;99624.84;6278862;20;2826341;-57
2023/03/20 11:29:56;;;;;;;;;9.67;9.67;;;;;19.15;34.37;99627.03;6283182;20;2773283;-55
2023/03/20 11:32:38;;;;;;;;;22.33;20.33;;;;;18.65;34.54;99625.47;6314738;20;3576294;-57
2023/03/20 11:35:25;;;;;;;;;22.67;18.33;;;;;18.32;35.38;99624.09;6279435;20;3583706;-57
2023/03/20 11:38:16;;;;;;;;;20.33;19.00;;;;;18.81;34.23;99616.72;6315639;20;3562758;-56
2023/03/20 11:40:48;;;;;;;;;55.25;45.25;;;;;19.15;34.42;99616.16;6309918;20;3623238;-56
2023/03/20 11:43:27;;;;;;;;;55.33;44.67;;;;;19.31;33.66;99613.63;6313561;20;3623223;-51
2023/03/20 11:46:03;;;;;;;;;18.33;16.67;;;;;19.37;33.73;99604.81;6288042;20;3569010;-45
2023/03/20 11:48:44;;;;;;;;;17.00;17.00;;;;;18.59;34.83;99607.88;6281055;20;2837805;-50